CNT weather

Crows Nest Helipad
Crows Nest, Queensland, Australia

Public forecast

Using degrees Celsius for public forecast. Weather courtesy of forecast.io.

METAR (pilot weather report)

Closest report is Oakey Airport, 19.4 nm (35.9 km) WSW. Retrieved 2019/04/19 04:00 UTC (51 minutes ago):

YBOK 190400Z AUTO 11013KT 9999 // SCT041 OVC057 25/15 Q1021

TAF (pilot weather forecast)

Forecast is more than 6 hours old.

Closest forecast is RAAF Base Amberley, 41.5 nm (76.8 km) ESE. Retrieved 2019/04/18 18:00 UTC (11 hours ago):

TAF YAMB 181653Z 1818/1912 16005KT 9999 FEW025 SCT035 FM182300 14012KT 9999 -SHRA SCT035 BKN050 INTER 1900/1912 VRB15G25KT 5000 -SHRA BKN020 BKN035